Mab Eol II — FGA6050 — position and weather

sailwx.info

Track history (hours):
 
Tides and Currents Weather Stations Pressure Air Temp Water Temp Dewpoint Dewpoint Depression Visibility Wind Speed Wind Dir Waves Ship Positions

Mab Eol II

Last reported at 2018-Feb-19 03:01 UTC. Time now 2018-Feb-19 12:21 UTC.
Position N 47°27' W 003°22'.

Length 12 m; draft 7.7 m.

Type: Fishing. MMSI: 227316520.

Date/timePositionNaut miles runAvg speedWind from/ knotsBaromVisibWave heightAir tempDewpointWater temp
2018-Feb-19 03:01N 47°27' W 003°22'0 8.8
2018-Feb-19 02:59N 47°28' W 003°22'4 8.8
2018-Feb-19 02:30N 47°32' W 003°22'4 8.7
2018-Feb-19 02:00N 47°36' W 003°22'4 8.6
2018-Feb-19 01:30N 47°41' W 003°22'3 0.1
2018-Feb-17 16:44N 47°44' W 003°22'0 0.0
2018-Feb-17 16:29N 47°44' W 003°22'0 0.1
2018-Feb-17 15:58N 47°44' W 003°22'3 5.8
2018-Feb-17 15:30N 47°41' W 003°22'4 8.9
2018-Feb-17 15:00N 47°37' W 003°22'4 9.0
2018-Feb-17 14:30N 47°32' W 003°22'5 9.0
2018-Feb-17 14:00N 47°28' W 003°23'1 0.1
2018-Feb-17 02:47N 47°29' W 003°23'2 8.8
2018-Feb-17 02:30N 47°32' W 003°23'4 8.8
2018-Feb-17 02:00N 47°36' W 003°23'4 8.9
2018-Feb-17 01:30N 47°40' W 003°22'3 1.1
2018-Feb-16 22:27N 47°44' W 003°22'0 0.1
2018-Feb-16 21:58N 47°44' W 003°22'0 0.0
2018-Feb-16 21:28N 47°44' W 003°22'0 0.0
2018-Feb-16 21:00N 47°44' W 003°22'4 7.5
2018-Feb-16 20:29N 47°40' W 003°22'4 9.3
2018-Feb-16 20:00N 47°35' W 003°23'5 9.1
2018-Feb-16 19:30N 47°31' W 003°23'5 0.3
2018-Feb-16 03:10N 47°26' W 003°23'2 9.1
2018-Feb-16 02:58N 47°27' W 003°23'4 9.0
2018-Feb-16 02:30N 47°32' W 003°23'4 9.0
2018-Feb-16 02:00N 47°36' W 003°22'5 9.1
2018-Feb-16 01:30N 47°41' W 003°22'3 6.2
2018-Feb-16 01:00N 47°44' W 003°22'0 0.0
2018-Feb-15 15:22N 47°44' W 003°22'0 0.2
2018-Feb-15 14:59N 47°44' W 003°22'4 9.0
2018-Feb-15 14:30N 47°39' W 003°22'5 9.0
2018-Feb-15 14:00N 47°35' W 003°23'5 9.3
2018-Feb-15 13:30N 47°30' W 003°24'2 0.2
2018-Feb-15 02:54N 47°28' W 003°22'3 8.1
2018-Feb-15 02:31N 47°32' W 003°22'4 8.2
2018-Feb-15 02:00N 47°36' W 003°22'4 8.3
2018-Feb-15 01:30N 47°40' W 003°22'4 7.4
2018-Feb-15 01:00N 47°44' W 003°22'0 0.0
2018-Feb-14 08:42N 47°44' W 003°22'0 0.0
2018-Feb-14 08:30N 47°44' W 003°22'0 0.0
2018-Feb-13 14:33N 47°44' W 003°22'0 0.0
2018-Feb-13 14:30N 47°44' W 003°22'0 0.0
2018-Feb-13 14:00N 47°44' W 003°22'0 0.0
2018-Feb-13 13:30N 47°44' W 003°22'0 0.0
2018-Feb-13 13:00N 47°44' W 003°22'0 0.0
2018-Feb-13 11:09N 47°44' W 003°22'0 0.0
2018-Feb-13 11:00N 47°44' W 003°22'0 0.0
2018-Feb-13 10:30N 47°44' W 003°22'0 0.0
2018-Feb-13 10:00N 47°44' W 003°22'0 0.0
2018-Feb-13 09:30N 47°44' W 003°22'0 0.0
2018-Feb-12 15:31N 47°44' W 003°22'0 0.0
2018-Feb-12 15:28N 47°44' W 003°22'0 0.1
2018-Feb-12 14:59N 47°44' W 003°22'0 0.0
2018-Feb-12 14:29N 47°44' W 003°22'4 7.4
2018-Feb-12 14:00N 47°40' W 003°22'4 8.5
2018-Feb-12 13:30N 47°36' W 003°22'4 8.6
2018-Feb-12 13:00N 47°32' W 003°22'4 8.5
2018-Feb-12 12:30N 47°27' W 003°22'1 0.1
2018-Feb-12 02:57N 47°27' W 003°22'4 9.4
2018-Feb-12 02:30N 47°31' W 003°22'5 9.4
2018-Feb-12 02:00N 47°36' W 003°22'5 9.4
2018-Feb-12 01:30N 47°40' W 003°22'3 6.8
2018-Feb-12 01:00N 47°44' W 003°22'0 0.0
2018-Feb-11 15:23N 47°44' W 003°22'0 0.1
2018-Feb-11 15:00N 47°44' W 003°22'3 5.6
2018-Feb-11 14:30N 47°41' W 003°22'4 8.3
2018-Feb-11 14:00N 47°37' W 003°22'4 8.4
2018-Feb-11 13:30N 47°33' W 003°22'4 8.3
2018-Feb-11 13:00N 47°29' W 003°22'1 0.1
2018-Feb-11 02:57N 47°27' W 003°21'4 9.3
2018-Feb-11 02:30N 47°31' W 003°22'5 9.2
2018-Feb-11 02:00N 47°36' W 003°22'5 9.1
2018-Feb-11 01:30N 47°40' W 003°22'3 6.3
2018-Feb-11 00:59N 47°44' W 003°22'0 0.0
2018-Feb-10 16:53N 47°44' W 003°22'0 0.4
2018-Feb-10 16:30N 47°44' W 003°22'0 0.4
2018-Feb-10 16:00N 47°44' W 003°22'2 4.9
2018-Feb-10 15:30N 47°41' W 003°22'5 9.0
2018-Feb-10 15:00N 47°37' W 003°22'4 9.1
2018-Feb-10 14:30N 47°32' W 003°22'4 8.9
2018-Feb-10 14:00N 47°28' W 003°21'1 0.1
2018-Feb-10 02:54N 47°27' W 003°21'4 9.5
2018-Feb-10 02:30N 47°30' W 003°22'5 9.5
2018-Feb-10 02:01N 47°35' W 003°22'5 9.5
2018-Feb-10 01:30N 47°40' W 003°22'3 0.3
2018-Feb-09 14:30N 47°37' W 003°22'  
Track history (hours):
 
Tides and Currents Weather Stations Pressure Air Temp Water Temp Dewpoint Dewpoint Depression Visibility Wind Speed Wind Dir Waves Ship Positions

Mab Eol II

Last reported at 2018-Feb-19 03:01 UTC. Time now 2018-Feb-19 12:21 UTC.
Position N 47°27' W 003°22'.

Length 12 m; draft 7.7 m.

Type: Fishing. MMSI: 227316520.

Date/timePositionNaut miles runAvg speedWind from/ knotsBaromVisibWave heightAir tempDewpointWater temp
2018-Feb-19 03:01N 47°27' W 003°22'0 8.8
2018-Feb-19 02:59N 47°28' W 003°22'4 8.8
2018-Feb-19 02:30N 47°32' W 003°22'4 8.7
2018-Feb-19 02:00N 47°36' W 003°22'4 8.6
2018-Feb-19 01:30N 47°41' W 003°22'3 0.1
2018-Feb-17 16:44N 47°44' W 003°22'0 0.0
2018-Feb-17 16:29N 47°44' W 003°22'0 0.1
2018-Feb-17 15:58N 47°44' W 003°22'3 5.8
2018-Feb-17 15:30N 47°41' W 003°22'4 8.9
2018-Feb-17 15:00N 47°37' W 003°22'4 9.0
2018-Feb-17 14:30N 47°32' W 003°22'5 9.0
2018-Feb-17 14:00N 47°28' W 003°23'1 0.1
2018-Feb-17 02:47N 47°29' W 003°23'2 8.8
2018-Feb-17 02:30N 47°32' W 003°23'4 8.8
2018-Feb-17 02:00N 47°36' W 003°23'4 8.9
2018-Feb-17 01:30N 47°40' W 003°22'3 1.1
2018-Feb-16 22:27N 47°44' W 003°22'0 0.1
2018-Feb-16 21:58N 47°44' W 003°22'0 0.0
2018-Feb-16 21:28N 47°44' W 003°22'0 0.0
2018-Feb-16 21:00N 47°44' W 003°22'4 7.5
2018-Feb-16 20:29N 47°40' W 003°22'4 9.3
2018-Feb-16 20:00N 47°35' W 003°23'5 9.1
2018-Feb-16 19:30N 47°31' W 003°23'5 0.3
2018-Feb-16 03:10N 47°26' W 003°23'2 9.1
2018-Feb-16 02:58N 47°27' W 003°23'4 9.0
2018-Feb-16 02:30N 47°32' W 003°23'4 9.0
2018-Feb-16 02:00N 47°36' W 003°22'5 9.1
2018-Feb-16 01:30N 47°41' W 003°22'3 6.2
2018-Feb-16 01:00N 47°44' W 003°22'0 0.0
2018-Feb-15 15:22N 47°44' W 003°22'0 0.2
2018-Feb-15 14:59N 47°44' W 003°22'4 9.0
2018-Feb-15 14:30N 47°39' W 003°22'5 9.0
2018-Feb-15 14:00N 47°35' W 003°23'5 9.3
2018-Feb-15 13:30N 47°30' W 003°24'2 0.2
2018-Feb-15 02:54N 47°28' W 003°22'3 8.1
2018-Feb-15 02:31N 47°32' W 003°22'4 8.2
2018-Feb-15 02:00N 47°36' W 003°22'4 8.3
2018-Feb-15 01:30N 47°40' W 003°22'4 7.4
2018-Feb-15 01:00N 47°44' W 003°22'0 0.0
2018-Feb-14 08:42N 47°44' W 003°22'0 0.0
2018-Feb-14 08:30N 47°44' W 003°22'0 0.0
2018-Feb-13 14:33N 47°44' W 003°22'0 0.0
2018-Feb-13 14:30N 47°44' W 003°22'0 0.0
2018-Feb-13 14:00N 47°44' W 003°22'0 0.0
2018-Feb-13 13:30N 47°44' W 003°22'0 0.0
2018-Feb-13 13:00N 47°44' W 003°22'0 0.0
2018-Feb-13 11:09N 47°44' W 003°22'0 0.0
2018-Feb-13 11:00N 47°44' W 003°22'0 0.0
2018-Feb-13 10:30N 47°44' W 003°22'0 0.0
2018-Feb-13 10:00N 47°44' W 003°22'0 0.0
2018-Feb-13 09:30N 47°44' W 003°22'0 0.0
2018-Feb-12 15:31N 47°44' W 003°22'0 0.0
2018-Feb-12 15:28N 47°44' W 003°22'0 0.1
2018-Feb-12 14:59N 47°44' W 003°22'0 0.0
2018-Feb-12 14:29N 47°44' W 003°22'4 7.4
2018-Feb-12 14:00N 47°40' W 003°22'4 8.5
2018-Feb-12 13:30N 47°36' W 003°22'4 8.6
2018-Feb-12 13:00N 47°32' W 003°22'4 8.5
2018-Feb-12 12:30N 47°27' W 003°22'1 0.1
2018-Feb-12 02:57N 47°27' W 003°22'4 9.4
2018-Feb-12 02:30N 47°31' W 003°22'5 9.4
2018-Feb-12 02:00N 47°36' W 003°22'5 9.4
2018-Feb-12 01:30N 47°40' W 003°22'3 6.8
2018-Feb-12 01:00N 47°44' W 003°22'0 0.0
2018-Feb-11 15:23N 47°44' W 003°22'0 0.1
2018-Feb-11 15:00N 47°44' W 003°22'3 5.6
2018-Feb-11 14:30N 47°41' W 003°22'4 8.3
2018-Feb-11 14:00N 47°37' W 003°22'4 8.4
2018-Feb-11 13:30N 47°33' W 003°22'4 8.3
2018-Feb-11 13:00N 47°29' W 003°22'1 0.1
2018-Feb-11 02:57N 47°27' W 003°21'4 9.3
2018-Feb-11 02:30N 47°31' W 003°22'5 9.2
2018-Feb-11 02:00N 47°36' W 003°22'5 9.1
2018-Feb-11 01:30N 47°40' W 003°22'3 6.3
2018-Feb-11 00:59N 47°44' W 003°22'0 0.0
2018-Feb-10 16:53N 47°44' W 003°22'0 0.4
2018-Feb-10 16:30N 47°44' W 003°22'0 0.4
2018-Feb-10 16:00N 47°44' W 003°22'2 4.9
2018-Feb-10 15:30N 47°41' W 003°22'5 9.0
2018-Feb-10 15:00N 47°37' W 003°22'4 9.1
2018-Feb-10 14:30N 47°32' W 003°22'4 8.9
2018-Feb-10 14:00N 47°28' W 003°21'1 0.1
2018-Feb-10 02:54N 47°27' W 003°21'4 9.5
2018-Feb-10 02:30N 47°30' W 003°22'5 9.5
2018-Feb-10 02:01N 47°35' W 003°22'5 9.5
2018-Feb-10 01:30N 47°40' W 003°22'3 0.3
2018-Feb-09 14:30N 47°37' W 003°22'  

Dump ship's entire track history